.
WxDataArchive / Data Records for 2006-12-05
2006-12-04 December 2006 2006-12-06

Data Records for Tuesday, 05 December 2006

Time	Temp	Chill	HIndex	Humid	Dewpt	 Wind 	HiWind	WindDir	Rain 	Barom 
-----	----	-----	------	-----	-----	------	------	-------	-----	----- 
00:00	25.0	25.0	25.0	75	18.2	3	9	270	0.00	30.158 
00:05	25.0	25.0	25.0	75	18.2	3	8	292	0.00	30.158 
00:10	24.7	24.7	24.7	76	18.2	2	4	270	0.00	30.158 
00:15	24.5	24.5	24.5	76	18.0	2	4	248	0.00	30.164 
00:20	24.4	24.4	24.4	77	18.2	2	4	270	0.00	30.164 
00:25	24.2	24.2	24.2	77	18.1	2	7	270	0.00	30.164 
00:30	24.2	24.2	24.2	77	18.1	3	9	270	0.00	30.167 
00:35	24.1	24.1	24.1	77	18.0	2	5	270	0.00	30.167 
00:40	24.1	24.1	24.1	76	17.7	3	10	270	0.00	30.167 
00:45	23.9	23.9	23.9	76	17.5	2	6	270	0.00	30.166 
00:50	23.8	23.8	23.8	76	17.4	2	7	270	0.00	30.166 
00:55	23.8	23.8	23.8	76	17.4	3	10	270	0.00	30.166 
01:00	23.8	23.8	23.8	76	17.4	3	7	270	0.00	30.171 
01:05	23.6	23.6	23.6	75	16.9	2	7	270	0.00	30.171 
01:10	23.6	23.6	23.6	75	16.9	2	6	248	0.00	30.171 
01:15	23.5	23.5	23.5	75	16.8	3	9	270	0.00	30.169 
01:20	23.5	23.5	23.5	76	17.1	2	7	270	0.00	30.169 
01:25	23.3	23.3	23.3	76	16.9	2	8	270	0.00	30.169 
01:30	23.2	23.2	23.2	76	16.8	2	7	270	0.00	30.172 
01:35	23.0	23.0	23.0	76	16.6	2	7	270	0.00	30.172 
01:40	22.9	22.9	22.9	76	16.5	2	11	270	0.00	30.172 
01:45	22.7	22.7	22.7	77	16.6	2	7	270	0.00	30.176 
01:50	22.7	22.7	22.7	77	16.6	2	6	270	0.00	30.176 
01:55	22.5	22.5	22.5	77	16.4	2	6	248	0.00	30.176 
02:00	22.4	22.4	22.4	76	16.0	1	5	270	0.00	30.182 
02:05	22.2	22.2	22.2	76	15.8	2	6	270	0.00	30.182 
02:10	22.1	22.1	22.1	76	15.7	1	3	270	0.00	30.182 
02:15	21.9	21.9	21.9	76	15.5	2	6	270	0.00	30.186 
02:20	21.8	21.8	21.8	75	15.1	2	5	270	0.00	30.186 
02:25	21.8	21.8	21.8	75	15.1	1	7	270	0.00	30.186 
02:30	21.6	21.6	21.6	75	14.9	1	6	270	0.00	30.190 
02:35	21.6	21.6	21.6	75	14.9	2	5	248	0.00	30.190 
02:40	21.4	21.4	21.4	74	14.4	2	7	270	0.00	30.190 
02:45	21.3	21.3	21.3	74	14.3	1	5	248	0.00	30.191 
02:50	21.1	21.1	21.1	73	13.8	2	9	270	0.00	30.191 
02:55	21.0	21.0	21.0	72	13.4	2	5	248	0.00	30.191 
03:00	21.0	21.0	21.0	71	13.1	2	8	248	0.00	30.204 
03:05	20.8	20.8	20.8	71	12.9	1	3	270	0.00	30.204 
03:10	20.8	20.8	20.8	71	12.9	2	4	270	0.00	30.204 
03:15	21.0	21.0	21.0	71	13.1	2	5	270	0.00	30.215 
03:20	21.0	21.0	21.0	70	12.8	2	10	270	0.00	30.215 
03:25	21.1	21.1	21.1	69	12.5	3	11	270	0.00	30.215 
03:30	21.1	21.1	21.1	70	12.9	1	5	270	0.00	30.222 
03:35	21.1	21.1	21.1	70	12.9	2	6	270	0.00	30.222 
03:40	21.0	21.0	21.0	70	12.8	2	6	270	0.00	30.222 
03:45	21.0	21.0	21.0	71	13.1	2	6	270	0.00	30.235 
03:50	20.8	20.8	20.8	70	12.6	2	6	270	0.00	30.235 
03:55	20.6	20.6	20.6	70	12.4	2	7	270	0.00	30.235 
04:00	20.5	20.5	20.5	71	12.6	2	7	248	0.00	30.237 
04:05	20.3	20.3	20.3	71	12.4	1	3	270	0.00	30.237 
04:10	20.5	20.5	20.5	71	12.6	2	7	270	0.00	30.237 
04:15	20.3	20.3	20.3	71	12.4	1	4	248	0.00	30.236 
04:20	20.3	20.3	20.3	71	12.4	1	5	270	0.00	30.236 
04:25	20.2	20.2	20.2	72	12.6	1	4	248	0.00	30.236 
04:30	20.2	20.2	20.2	72	12.6	2	5	270	0.00	30.238 
04:35	20.2	20.2	20.2	72	12.6	1	5	270	0.00	30.238 
04:40	20.3	20.3	20.3	72	12.7	1	6	248	0.00	30.238 
04:45	20.3	20.3	20.3	72	12.7	1	7	248	0.00	30.245 
04:50	20.3	20.3	20.3	72	12.7	1	3	248	0.00	30.245 
04:55	20.3	20.3	20.3	72	12.7	1	3	248	0.00	30.245 
05:00	20.5	20.5	20.5	73	13.2	1	5	248	0.00	30.250 
05:05	20.5	20.5	20.5	73	13.2	1	5	270	0.00	30.250 
05:10	20.5	20.5	20.5	73	13.2	1	4	248	0.00	30.250 
05:15	20.5	20.5	20.5	73	13.2	1	3	248	0.00	30.253 
05:20	20.6	20.6	20.6	73	13.3	1	4	248	0.00	30.253 
05:25	20.6	20.6	20.6	73	13.3	1	4	248	0.00	30.253 
05:30	20.6	20.6	20.6	73	13.3	1	5	248	0.00	30.260 
05:35	20.6	20.6	20.6	73	13.3	1	3	248	0.00	30.260 
05:40	20.6	20.6	20.6	73	13.3	1	3	270	0.00	30.260 
05:45	20.6	20.6	20.6	72	13.0	1	5	248	0.00	30.267 
05:50	20.6	20.6	20.6	72	13.0	2	7	270	0.00	30.267 
05:55	20.6	20.6	20.6	72	13.0	2	5	248	0.00	30.267 
06:00	20.6	20.6	20.6	73	13.3	1	2	270	0.00	30.278 
06:05	20.6	20.6	20.6	73	13.3	2	5	270	0.00	30.278 
06:10	20.6	20.6	20.6	72	13.0	1	4	248	0.00	30.278 
06:15	20.5	20.5	20.5	71	12.6	1	5	270	0.00	30.285 
06:20	20.3	20.3	20.3	72	12.7	1	7	270	0.00	30.285 
06:25	20.2	20.2	20.2	72	12.6	1	4	248	0.00	30.285 
06:30	20.2	20.2	20.2	72	12.6	1	3	248	0.00	30.293 
06:35	20.0	20.0	20.0	72	12.5	2	5	270	0.00	30.293 
06:40	19.7	19.7	19.7	72	12.2	1	6	270	0.00	30.293 
06:45	19.4	19.4	19.4	72	11.9	2	9	270	0.00	30.302 
06:50	19.1	19.1	19.1	72	11.6	1	5	248	0.00	30.302 
06:55	18.6	18.6	18.6	73	11.4	1	5	248	0.00	30.302 
07:00	18.1	18.1	18.1	72	10.6	2	6	270	0.00	30.306 
07:05	17.8	17.8	17.8	73	10.6	0	3	270	0.00	30.306 
07:10	17.5	17.5	17.5	73	10.3	0	2	248	0.00	30.306 
07:15	17.2	17.2	17.2	73	10.1	1	6	248	0.00	30.319 
07:20	16.9	16.9	16.9	73	9.8	1	6	248	0.00	30.319 
07:25	16.7	16.7	16.7	73	9.6	1	4	248	0.00	30.319 
07:30	16.4	16.4	16.4	74	9.6	1	6	270	0.00	30.322 
07:35	16.2	16.2	16.2	74	9.4	1	5	270	0.00	30.322 
07:40	16.1	16.1	16.1	74	9.3	1	6	248	0.00	30.322 
07:45	15.9	15.9	15.9	74	9.1	0	2	248	0.00	30.324 
07:50	15.9	15.9	15.9	75	9.4	0	1	248	0.00	30.324 
07:55	15.7	15.7	15.7	75	9.2	1	3	248	0.00	30.324 
08:00	15.6	15.6	15.6	75	9.1	0	2	248	0.00	30.330 
08:05	15.6	15.6	15.6	75	9.1	0	3	248	0.00	30.330 
08:10	15.6	15.6	15.6	76	9.4	0	2	248	0.00	30.330 
08:15	15.6	15.6	15.6	76	9.4	0	4	248	0.00	30.328 
08:20	15.6	15.6	15.6	76	9.4	0	3	248	0.00	30.328 
08:25	15.6	15.6	15.6	76	9.4	0	3	248	0.00	30.328 
08:30	15.7	15.7	15.7	76	9.5	1	3	248	0.00	30.330 
08:35	15.9	15.9	15.9	76	9.7	1	4	248	0.00	30.330 
08:40	16.1	16.1	16.1	76	9.9	1	3	248	0.00	30.330 
08:45	16.2	16.2	16.2	75	9.7	1	5	248	0.00	30.335 
08:50	16.4	16.4	16.4	75	9.9	1	4	248	0.00	30.335 
08:55	16.5	16.5	16.5	74	9.7	1	3	248	0.00	30.335 
09:00	16.7	16.7	16.7	74	9.9	1	5	248	0.00	30.340 
09:05	16.9	16.9	16.9	74	10.1	1	5	248	0.00	30.340 
09:10	17.2	17.2	17.2	73	10.1	0	2	248	0.00	30.340 
09:15	17.3	17.3	17.3	73	10.2	1	3	248	0.00	30.349 
09:20	17.5	17.5	17.5	72	10.0	2	9	248	0.00	30.349 
09:25	17.8	17.8	17.8	72	10.3	1	3	225	0.00	30.349 
09:30	18.1	18.1	18.1	72	10.6	1	2	248	0.00	30.349 
09:35	18.4	18.4	18.4	71	10.6	1	2	248	0.00	30.349 
09:40	18.6	18.6	18.6	71	10.8	0	4	248	0.00	30.349 
09:45	18.9	18.9	18.9	71	11.1	0	2	248	0.00	30.349 
09:50	19.1	19.1	19.1	70	11.0	1	5	248	0.00	30.349 
09:55	19.2	19.2	19.2	70	11.0	0	2	248	0.00	30.349 
10:00	19.7	19.7	19.7	70	11.5	1	5	248	0.00	30.348 
10:05	19.9	19.9	19.9	69	11.4	1	5	248	0.00	30.348 
10:10	20.0	20.0	20.0	69	11.5	1	5	248	0.00	30.348 
10:15	20.3	20.3	20.3	68	11.5	1	4	248	0.00	30.353 
10:20	20.5	20.5	20.5	68	11.6	2	7	248	0.00	30.353 
10:25	20.8	20.8	20.8	68	11.9	1	4	248	0.00	30.353 
10:30	21.3	21.3	21.3	67	12.1	2	5	248	0.00	30.366 
10:35	21.4	21.4	21.4	66	11.8	2	8	248	0.00	30.366 
10:40	21.6	21.6	21.6	66	12.0	1	5	248	0.00	30.366 
10:45	22.1	22.1	22.1	66	12.5	1	4	248	0.00	30.372 
10:50	22.7	22.7	22.7	65	12.7	1	3	248	0.00	30.372 
10:55	22.7	22.7	22.7	64	12.4	2	6	248	0.00	30.372 
11:00	22.7	22.7	22.7	64	12.4	2	7	248	0.00	30.371 
11:05	22.9	22.9	22.9	65	12.9	1	4	248	0.00	30.371 
11:10	23.2	23.2	23.2	65	13.2	1	4	248	0.00	30.371 
11:15	23.6	23.6	23.6	64	13.2	1	3	248	0.00	30.368 
11:20	23.9	23.9	23.9	63	13.2	0	2	248	0.00	30.368 
11:25	24.1	24.1	24.1	64	13.7	1	5	248	0.00	30.368 
11:30	24.2	24.2	24.2	63	13.4	1	3	248	0.00	30.351 
11:35	24.5	24.5	24.5	62	13.4	1	4	248	0.00	30.351 
11:40	24.5	24.5	24.5	62	13.4	1	6	248	0.00	30.351 
11:45	24.7	24.7	24.7	62	13.6	1	3	248	0.00	30.343 
11:50	24.8	24.8	24.8	61	13.3	2	7	248	0.00	30.343 
11:55	25.0	25.0	25.0	62	13.8	1	3	248	0.00	30.343 
12:00	25.1	25.1	25.1	61	13.6	1	7	248	0.00	30.327 
12:05	25.4	25.4	25.4	60	13.5	1	3	248	0.00	30.327 
12:10	25.6	25.6	25.6	60	13.7	2	6	248	0.00	30.327 
12:15	25.7	25.7	25.7	61	14.1	2	4	248	0.00	30.329 
12:20	26.0	26.0	26.0	60	14.0	1	4	248	0.00	30.329 
12:25	26.3	26.3	26.3	60	14.3	1	6	248	0.00	30.329 
12:30	26.4	26.4	26.4	60	14.4	1	4	225	0.00	30.327 
12:35	26.3	26.3	26.3	59	13.9	2	7	248	0.00	30.327 
12:40	26.4	26.4	26.4	61	14.8	1	4	248	0.00	30.327 
12:45	26.6	26.6	26.6	58	13.8	2	6	248	0.00	30.318 
12:50	26.6	26.6	26.6	58	13.8	3	5	248	0.00	30.318 
12:55	26.7	26.7	26.7	59	14.3	1	6	248	0.00	30.318 
13:00	27.2	27.2	27.2	58	14.4	2	4	270	0.00	30.301 
13:05	27.5	27.5	27.5	58	14.7	1	7	90	0.00	30.301 
13:10	27.3	27.3	27.3	56	13.7	2	5	248	0.00	30.301 
13:15	27.5	27.5	27.5	58	14.7	1	4	270	0.00	30.291 
13:20	27.8	27.8	27.8	58	15.0	1	3	270	0.00	30.291 
13:25	27.9	27.9	27.9	57	14.7	1	7	112	0.00	30.291 
13:30	27.9	27.9	27.9	58	15.1	2	5	90	0.00	30.281 
13:35	27.9	27.9	27.9	58	15.1	2	7	90	0.00	30.281 
13:40	27.8	27.8	27.8	58	15.0	2	6	270	0.00	30.281 
13:45	27.8	27.8	27.8	58	15.0	2	5	248	0.00	30.281 
13:50	27.9	27.9	27.9	59	15.5	2	5	90	0.00	30.281 
13:55	27.9	27.9	27.9	58	15.1	1	4	90	0.00	30.281 
14:00	28.2	28.2	28.2	56	14.5	2	5	248	0.00	30.281 
14:05	28.4	28.4	28.4	56	14.7	2	6	270	0.00	30.281 
14:10	28.4	28.4	28.4	56	14.7	2	5	270	0.00	30.281 
14:15	28.5	28.5	28.5	58	15.6	1	5	225	0.00	30.279 
14:20	28.7	28.7	28.7	57	15.4	2	5	248	0.00	30.279 
14:25	28.8	28.8	28.8	57	15.5	1	4	225	0.00	30.279 
14:30	28.8	28.8	28.8	57	15.5	2	4	225	0.00	30.273 
14:35	29.0	29.0	29.0	57	15.7	2	5	270	0.00	30.273 
14:40	29.0	29.0	29.0	56	15.3	1	4	248	0.00	30.273 
14:45	29.0	29.0	29.0	56	15.3	1	3	68	0.00	30.264 
14:50	29.3	29.3	29.3	56	15.6	1	3	225	0.00	30.264 
14:55	29.4	29.4	29.4	56	15.7	1	7	68	0.00	30.264 
15:00	29.3	29.3	29.3	56	15.6	2	6	270	0.00	30.256 
15:05	29.3	29.3	29.3	56	15.6	1	5	112	0.00	30.256 
15:10	29.3	29.3	29.3	54	14.7	2	6	248	0.00	30.256 
15:15	29.4	29.4	29.4	55	15.3	2	6	248	0.00	30.250 
15:20	29.5	29.5	29.5	56	15.8	1	4	248	0.00	30.250 
15:25	29.7	29.7	29.7	56	15.9	1	5	248	0.00	30.250 
15:30	29.4	29.4	29.4	57	16.1	2	5	90	0.00	30.242 
15:35	29.4	29.4	29.4	57	16.1	2	6	90	0.00	30.242 
15:40	29.5	29.5	29.5	56	15.8	2	5	90	0.00	30.242 
15:45	29.4	29.4	29.4	56	15.7	3	9	90	0.00	30.225 
15:50	29.4	29.4	29.4	56	15.7	1	5	68	0.00	30.225 
15:55	29.4	29.4	29.4	57	16.1	1	4	0	0.00	30.225 
16:00	29.1	29.1	29.1	56	15.4	2	5	248	0.00	30.237 
16:05	29.1	29.1	29.1	56	15.4	2	5	248	0.00	30.237 
16:10	29.1	29.1	29.1	58	16.2	1	3	90	0.00	30.237 
16:15	29.1	29.1	29.1	58	16.2	1	4	248	0.00	30.250 
16:20	29.3	29.3	29.3	58	16.4	2	5	248	0.00	30.250 
16:25	29.3	29.3	29.3	57	16.0	1	6	248	0.00	30.250 
16:30	29.3	29.3	29.3	58	16.4	1	3	202	0.00	30.250 
16:35	29.4	29.4	29.4	57	16.1	1	5	248	0.00	30.250 
16:40	29.4	29.4	29.4	58	16.5	0	2	248	0.00	30.250 
16:45	29.4	29.4	29.4	57	16.1	1	5	248	0.00	30.247 
16:50	29.4	29.4	29.4	57	16.1	1	4	248	0.00	30.247 
16:55	29.4	29.4	29.4	57	16.1	1	3	248	0.00	30.247 
17:00	29.4	29.4	29.4	56	15.7	2	4	270	0.00	30.244 
17:05	29.4	29.4	29.4	55	15.3	1	5	248	0.00	30.244 
17:10	29.4	29.4	29.4	56	15.7	2	6	248	0.00	30.244 
17:15	29.4	29.4	29.4	55	15.3	1	7	248	0.00	30.245 
17:20	29.4	29.4	29.4	54	14.8	2	5	90	0.00	30.245 
17:25	29.4	29.4	29.4	55	15.3	2	4	90	0.00	30.245 
17:30	29.4	29.4	29.4	56	15.7	1	4	112	0.00	30.230 
17:35	29.3	29.3	29.3	56	15.6	0	3	270	0.00	30.230 
17:40	29.3	29.3	29.3	55	15.2	1	4	90	0.00	30.230 
17:45	29.3	29.3	29.3	55	15.2	2	5	112	0.00	30.219 
17:50	29.4	29.4	29.4	55	15.3	1	3	90	0.00	30.219 
17:55	29.3	29.3	29.3	56	15.6	1	3	90	0.00	30.219 
18:00	29.3	29.3	29.3	56	15.6	1	3	112	0.00	30.213 
18:05	29.3	29.3	29.3	56	15.6	1	3	90	0.00	30.213 
18:10	29.4	29.4	29.4	56	15.7	1	3	90	0.00	30.213 
18:15	29.3	29.3	29.3	55	15.2	1	3	248	0.00	30.233 
18:20	29.1	29.1	29.1	56	15.4	1	2	248	0.00	30.233 
18:25	29.0	29.0	29.0	56	15.3	0	2	112	0.00	30.233 
18:30	28.8	28.8	28.8	56	15.1	1	2	112	0.00	30.205 
18:35	28.8	28.8	28.8	57	15.5	1	3	112	0.00	30.205 
18:40	28.8	28.8	28.8	58	15.9	0	2	45	0.00	30.205 
18:45	28.8	28.8	28.8	57	15.5	1	3	45	0.00	30.204 
18:50	29.0	29.0	29.0	56	15.3	1	3	112	0.00	30.204 
18:55	29.0	29.0	29.0	56	15.3	1	3	135	0.00	30.204 
19:00	29.0	29.0	29.0	56	15.3	1	4	112	0.00	30.190 
19:05	29.0	29.0	29.0	56	15.3	1	4	90	0.00	30.190 
19:10	29.0	29.0	29.0	57	15.7	0	2	90	0.00	30.190 
19:15	29.0	29.0	29.0	57	15.7	1	2	90	0.00	30.197 
19:20	29.1	29.1	29.1	57	15.8	1	2	112	0.00	30.197 
19:25	29.1	29.1	29.1	58	16.2	1	3	112	0.00	30.197 
19:30	29.3	29.3	29.3	58	16.4	1	3	90	0.00	30.190 
19:35	29.3	29.3	29.3	59	16.8	0	2	68	0.00	30.190 
19:40	29.4	29.4	29.4	58	16.5	1	4	90	0.00	30.190 
19:45	29.4	29.4	29.4	59	16.9	1	2	112	0.00	30.190 
19:50	29.4	29.4	29.4	59	16.9	1	3	45	0.00	30.190 
19:55	29.4	29.4	29.4	59	16.9	1	3	45	0.00	30.190 
20:00	29.4	29.4	29.4	59	16.9	1	4	270	0.00	30.191 
20:05	29.4	29.4	29.4	60	17.3	1	3	270	0.00	30.191 
20:10	29.5	29.5	29.5	59	17.0	1	4	68	0.00	30.191 
20:15	29.5	29.5	29.5	58	16.6	1	5	90	0.00	30.178 
20:20	29.5	29.5	29.5	59	17.0	0	2	292	0.00	30.178 
20:25	29.7	29.7	29.7	58	16.8	1	4	90	0.00	30.178 
20:30	29.7	29.7	29.7	59	17.1	0	2	45	0.00	30.174 
20:35	29.5	29.5	29.5	59	17.0	1	6	22	0.00	30.174 
20:40	29.5	29.5	29.5	60	17.3	1	4	315	0.00	30.174 
20:45	29.4	29.4	29.4	60	17.3	1	2	45	0.00	30.171 
20:50	29.4	29.4	29.4	60	17.3	1	4	270	0.00	30.171 
20:55	29.4	29.4	29.4	60	17.3	0	2	45	0.00	30.171 
21:00	29.4	29.4	29.4	60	17.3	0	3	68	0.00	30.171 
21:05	29.3	29.3	29.3	61	17.5	0	2	90	0.00	30.171 
21:10	29.4	29.4	29.4	60	17.3	1	5	112	0.00	30.171 
21:15	29.4	29.4	29.4	61	17.6	0	2	135	0.00	30.155 
21:20	29.4	29.4	29.4	61	17.6	1	3	90	0.00	30.155 
21:25	29.4	29.4	29.4	61	17.6	1	2	225	0.00	30.155 
21:30	29.4	29.4	29.4	61	17.6	1	2	135	0.00	30.140 
21:35	29.4	29.4	29.4	61	17.6	1	3	135	0.00	30.140 
21:40	29.4	29.4	29.4	61	17.6	1	2	112	0.00	30.140 
21:45	29.4	29.4	29.4	62	18.0	1	4	112	0.00	30.137 
21:50	29.4	29.4	29.4	62	18.0	1	3	112	0.00	30.137 
21:55	29.5	29.5	29.5	61	17.7	1	4	112	0.00	30.137 
22:00	29.5	29.5	29.5	61	17.7	2	4	112	0.00	30.123 
22:05	29.5	29.5	29.5	61	17.7	1	2	112	0.00	30.123 
22:10	29.5	29.5	29.5	62	18.1	1	3	112	0.00	30.123 
22:15	29.5	29.5	29.5	62	18.1	1	3	135	0.00	30.113 
22:20	29.7	29.7	29.7	62	18.3	1	5	112	0.00	30.113 
22:25	29.7	29.7	29.7	62	18.3	2	5	112	0.00	30.113 
22:30	29.8	29.8	29.8	62	18.4	2	4	112	0.00	30.102 
22:35	30.0	30.0	30.0	62	18.6	2	6	112	0.00	30.102 
22:40	30.1	30.1	30.1	61	18.3	3	6	112	0.00	30.102 
22:45	30.4	30.4	30.4	60	18.2	3	10	90	0.00	30.077 
22:50	30.6	30.6	30.6	60	18.4	2	5	112	0.00	30.077 
22:55	30.7	30.7	30.7	59	18.1	1	5	112	0.00	30.077 
23:00	30.9	30.9	30.9	59	18.3	1	4	112	0.00	30.073 
23:05	31.0	31.0	31.0	59	18.4	1	6	90	0.00	30.073 
23:10	31.2	31.2	31.2	58	18.2	1	5	270	0.00	30.073 
23:15	31.3	31.3	31.3	58	18.3	1	6	270	0.00	30.078 
23:20	31.3	31.3	31.3	58	18.3	1	3	248	0.00	30.078 
23:25	31.5	31.5	31.5	58	18.4	1	4	270	0.00	30.078 
23:30	31.5	31.5	31.5	58	18.4	1	3	248	0.00	30.073 
23:35	31.5	31.5	31.5	58	18.4	2	5	248	0.00	30.073 
23:40	31.5	31.5	31.5	58	18.4	1	6	248	0.00	30.073 
23:45	31.5	31.5	31.5	58	18.4	2	4	248	0.00	30.069 
23:50	31.3	31.3	31.3	59	18.7	1	4	248	0.00	30.069 
23:55	31.2	31.2	31.2	60	19.0	1	3	270	0.00	30.069 

CoCoRaHS
IN-AL-39
A2 Web Hosting
Creative Commons License
GoDaddy
Look for:

loaded 2017-12-12 07:20:18 • last modified 2010-11-18 10:43:29
Privacy PolicyDisclaimer
• wx.awcolley.com is powered by PmWiki v.2002016 •
• all content (unless otherwise noted) © 2017 A W Colley